Time;durP1;ratioP1;P1;durP2;ratioP2;P2;SDS_P1;SDS_P2;PMS_P1;PMS_P2;Temp;Humidity;BMP_temperature;BMP_pressure;BME280_temperature;BME280_humidity;BME280_pressure;Samples;Min_cycle;Max_cycle;Signal;HPM_P1;HPM_P2
2021/05/06 00:02:15;;;;;;;1.20;1.00;;;7.40;98.00;;;;;;5112470;28;20439;-69
2021/05/06 00:32:22;;;;;;;1.30;1.17;;;7.60;98.00;;;;;;5077217;28;20460;-69
2021/05/06 00:34:48;;;;;;;1.20;1.00;;;7.50;98.00;;;;;;5109143;28;20456;-69
2021/05/06 00:37:18;;;;;;;1.20;0.90;;;7.40;98.00;;;;;;5111802;28;20941;-69
2021/05/06 00:39:48;;;;;;;1.20;0.93;;;7.40;98.00;;;;;;5109358;28;20487;-69
2021/05/06 00:56:36;;;;;;;1.20;1.00;;;7.50;98.00;;;;;;5111742;28;20858;-69
2021/05/06 00:59:26;;;;;;;1.20;0.90;;;7.50;98.00;;;;;;5108722;28;20547;-69
2021/05/06 01:02:14;;;;;;;1.20;1.00;;;7.60;98.00;;;;;;5111574;28;20448;-69
2021/05/06 01:04:49;;;;;;;1.20;0.90;;;7.60;98.00;;;;;;5108716;28;20448;-69
2021/05/06 01:07:29;;;;;;;1.43;1.10;;;7.60;98.00;;;;;;5111732;28;20459;-69
2021/05/06 01:10:07;;;;;;;1.20;0.90;;;7.60;98.00;;;;;;5107947;28;20458;-69
2021/05/06 01:12:34;;;;;;;1.20;1.03;;;7.50;98.00;;;;;;5111426;28;20455;-69
2021/05/06 01:15:01;;;;;;;1.20;1.17;;;7.50;98.00;;;;;;5108838;28;20455;-69
2021/05/06 01:17:27;;;;;;;1.20;0.90;;;7.50;98.00;;;;;;5110816;28;20466;-69
2021/05/06 01:19:54;;;;;;;1.20;0.90;;;7.40;98.00;;;;;;5108531;28;20462;-68
2021/05/06 01:22:21;;;;;;;1.20;0.90;;;7.50;98.00;;;;;;5111055;28;20973;-68
2021/05/06 01:24:52;;;;;;;1.80;1.03;;;7.50;98.00;;;;;;5108793;28;20462;-69
2021/05/06 01:27:22;;;;;;;1.20;1.00;;;7.50;98.00;;;;;;5111109;28;20455;-68
2021/05/06 01:29:54;;;;;;;1.20;0.90;;;7.50;98.00;;;;;;5108556;28;20452;-69
2021/05/06 01:32:25;;;;;;;1.20;0.90;;;7.50;98.00;;;;;;5111033;28;20461;-69
2021/05/06 01:34:54;;;;;;;1.87;1.20;;;7.50;98.00;;;;;;5108408;28;20462;-69
2021/05/06 01:37:23;;;;;;;1.20;1.00;;;7.50;98.00;;;;;;5110971;28;20455;-69
2021/05/06 01:40:02;;;;;;;1.20;0.90;;;7.40;98.00;;;;;;5108410;28;20950;-68
2021/05/06 01:42:34;;;;;;;1.20;1.10;;;7.40;98.00;;;;;;5110925;28;20463;-69
2021/05/06 01:47:57;;;;;;;1.20;0.90;;;7.20;98.00;;;;;;5061793;28;20452;-68
2021/05/06 01:50:36;;;;;;;1.20;0.90;;;7.30;98.00;;;;;;5106973;28;20538;-69
2021/05/06 01:58:44;;;;;;;1.20;0.90;;;7.10;98.00;;;;;;5108181;28;20617;-68
2021/05/06 02:01:10;;;;;;;1.77;1.27;;;7.10;98.00;;;;;;5110998;28;20493;-68
2021/05/06 02:03:37;;;;;;;1.20;1.00;;;7.10;98.00;;;;;;5107980;28;20489;-68
2021/05/06 02:06:04;;;;;;;1.20;1.00;;;7.10;98.00;;;;;;5113943;28;20480;-67
2021/05/06 02:08:32;;;;;;;1.20;1.00;;;7.10;98.00;;;;;;5111848;28;20497;-68
2021/05/06 02:11:00;;;;;;;1.20;0.90;;;7.10;98.00;;;;;;5114786;28;20773;-68
2021/05/06 02:13:28;;;;;;;1.20;0.93;;;7.10;98.00;;;;;;5111960;28;20462;-68
2021/05/06 02:15:57;;;;;;;1.20;0.90;;;7.00;98.00;;;;;;5114325;28;20473;-68
2021/05/06 02:18:24;;;;;;;2.13;2.03;;;7.00;98.00;;;;;;5111447;28;21035;-68
2021/05/06 02:20:53;;;;;;;1.20;0.90;;;7.00;98.00;;;;;;5114230;28;20472;-68
2021/05/06 02:23:20;;;;;;;1.20;0.90;;;7.10;98.00;;;;;;5112226;28;20472;-70
2021/05/06 02:25:48;;;;;;;1.20;0.93;;;7.10;98.00;;;;;;5112987;28;20447;-68
2021/05/06 02:28:15;;;;;;;1.20;1.00;;;7.10;98.00;;;;;;5112927;28;20542;-68
2021/05/06 02:30:43;;;;;;;1.20;0.90;;;7.10;98.00;;;;;;5111725;28;20455;-68
2021/05/06 02:33:10;;;;;;;1.20;0.90;;;7.10;98.00;;;;;;5114141;28;20836;-68
2021/05/06 02:35:40;;;;;;;1.20;1.00;;;7.20;98.00;;;;;;5111402;28;20474;-68
2021/05/06 02:38:08;;;;;;;1.20;1.00;;;7.20;98.00;;;;;;5111700;28;20563;-68
2021/05/06 02:40:35;;;;;;;1.20;0.90;;;7.20;98.00;;;;;;5111550;28;20480;-68
2021/05/06 02:43:03;;;;;;;1.20;1.00;;;7.30;98.00;;;;;;5114021;28;20454;-67
2021/05/06 02:45:31;;;;;;;1.20;1.00;;;7.30;98.00;;;;;;5111429;28;20508;-68
2021/05/06 02:47:57;;;;;;;1.20;0.90;;;7.30;98.00;;;;;;5113073;28;20459;-68
2021/05/06 02:50:27;;;;;;;1.20;0.90;;;7.40;98.00;;;;;;5111565;28;20584;-68
2021/05/06 02:53:00;;;;;;;1.20;0.90;;;7.40;98.00;;;;;;5113902;28;20473;-68
2021/05/06 02:55:34;;;;;;;1.20;0.90;;;7.40;98.00;;;;;;5111193;27;20451;-68
2021/05/06 02:58:05;;;;;;;1.20;0.90;;;7.40;98.00;;;;;;5113603;28;20483;-68
2021/05/06 03:03:17;;;;;;;1.20;0.90;;;7.50;98.00;;;;;;5113750;28;20498;-67
2021/05/06 03:05:47;;;;;;;1.20;1.07;;;7.50;98.00;;;;;;5111041;28;20952;-67
2021/05/06 03:08:16;;;;;;;1.20;0.97;;;7.50;98.00;;;;;;5113566;28;20530;-67
2021/05/06 03:10:58;;;;;;;1.30;1.10;;;7.50;98.00;;;;;;5110820;28;20473;-67
2021/05/06 03:24:39;;;;;;;1.20;1.00;;;7.50;98.00;;;;;;5110667;28;20501;-66
2021/05/06 03:27:09;;;;;;;1.67;1.20;;;7.40;98.00;;;;;;5112989;28;20462;-66
2021/05/06 03:29:40;;;;;;;1.20;1.00;;;7.40;98.00;;;;;;5110428;28;20470;-66
2021/05/06 03:32:23;;;;;;;1.20;1.00;;;7.40;98.00;;;;;;5113005;28;20455;-66
2021/05/06 03:34:53;;;;;;;1.20;1.00;;;7.50;98.00;;;;;;5109520;28;20476;-67
2021/05/06 03:43:14;;;;;;;1.20;1.00;;;7.50;98.00;;;;;;5102632;28;20450;-67
2021/05/06 03:46:15;;;;;;;1.20;1.00;;;7.50;98.00;;;;;;5110170;28;20494;-66
2021/05/06 03:49:12;;;;;;;1.30;1.20;;;7.40;98.00;;;;;;5110121;28;21038;-66
2021/05/06 04:19:11;;;;;;;1.20;1.00;;;7.10;98.00;;;;;;5109144;28;20833;-66
2021/05/06 04:21:54;;;;;;;1.20;0.90;;;7.20;98.00;;;;;;5112224;28;20867;-66
2021/05/06 04:27:09;;;;;;;1.20;1.00;;;7.30;98.00;;;;;;5110537;28;20525;-67
2021/05/06 04:37:55;;;;;;;1.20;0.90;;;7.20;98.00;;;;;;5111678;28;20467;-67
2021/05/06 04:40:33;;;;;;;1.20;0.90;;;7.40;98.00;;;;;;5109336;28;20522;-66
2021/05/06 04:43:36;;;;;;;1.20;0.90;;;7.20;98.00;;;;;;5111647;28;20638;-67
2021/05/06 04:54:23;;;;;;;1.20;0.90;;;6.80;98.00;;;;;;5109218;28;20430;-67
2021/05/06 04:57:05;;;;;;;1.20;0.90;;;6.70;98.00;;;;;;5112594;28;20697;-67
2021/05/06 05:04:57;;;;;;;1.20;0.90;;;6.40;98.00;;;;;;5108883;28;20458;-67
2021/05/06 05:07:27;;;;;;;1.20;0.97;;;6.40;98.00;;;;;;5111632;28;20440;-67
2021/05/06 05:10:08;;;;;;;1.20;1.00;;;6.50;98.00;;;;;;5107887;28;20567;-66
2021/05/06 05:18:31;;;;;;;1.40;1.20;;;6.50;98.00;;;;;;5079077;28;20470;-66
2021/05/06 05:21:17;;;;;;;1.20;0.90;;;6.50;98.00;;;;;;5107916;28;20461;-67
2021/05/06 05:23:46;;;;;;;1.90;1.10;;;6.70;98.00;;;;;;5108402;28;20444;-66
2021/05/06 05:26:14;;;;;;;1.20;1.00;;;6.60;98.00;;;;;;5111286;28;20829;-67
2021/05/06 05:28:41;;;;;;;1.30;1.10;;;6.80;98.00;;;;;;5109689;28;20549;-68
2021/05/06 05:31:13;;;;;;;1.20;0.90;;;6.80;98.00;;;;;;5111218;28;20460;-67
2021/05/06 05:33:47;;;;;;;1.20;0.90;;;6.90;98.00;;;;;;5109461;28;20508;-67
2021/05/06 05:36:17;;;;;;;1.20;0.93;;;7.10;98.00;;;;;;5111170;28;20453;-66
2021/05/06 05:38:52;;;;;;;1.20;0.90;;;7.10;98.00;;;;;;5107694;28;20840;-67
2021/05/06 05:41:45;;;;;;;1.20;0.90;;;7.20;98.00;;;;;;5114143;28;20469;-66
2021/05/06 05:44:34;;;;;;;1.20;0.90;;;7.40;98.00;;;;;;5112686;28;20460;-67
2021/05/06 05:55:32;;;;;;;1.30;1.30;;;7.90;98.00;;;;;;5105027;28;20450;-68
2021/05/06 05:57:59;;;;;;;1.20;0.90;;;8.10;98.00;;;;;;5114758;28;20806;-67
2021/05/06 06:00:25;;;;;;;1.20;1.00;;;8.30;98.00;;;;;;5112438;28;20503;-68
2021/05/06 06:02:51;;;;;;;1.20;0.90;;;8.40;98.00;;;;;;5114690;28;20813;-68
2021/05/06 06:05:18;;;;;;;1.20;1.00;;;8.40;98.00;;;;;;5112347;28;20453;-67
2021/05/06 06:07:46;;;;;;;1.20;1.00;;;8.50;98.00;;;;;;5113225;28;20736;-67
2021/05/06 06:10:12;;;;;;;1.23;1.10;;;8.60;98.00;;;;;;5112099;28;20451;-67
2021/05/06 06:12:41;;;;;;;1.20;0.90;;;8.70;98.00;;;;;;5113253;28;20456;-67
2021/05/06 06:15:12;;;;;;;1.20;1.17;;;8.70;98.00;;;;;;5112368;28;20452;-67
2021/05/06 06:17:41;;;;;;;1.20;0.90;;;8.70;98.00;;;;;;5096805;28;20465;-67
2021/05/06 06:20:08;;;;;;;1.20;0.90;;;8.70;98.00;;;;;;5111866;28;20481;-67
2021/05/06 06:22:35;;;;;;;1.20;0.97;;;8.70;98.00;;;;;;5113181;28;20469;-68
2021/05/06 06:25:02;;;;;;;1.20;0.90;;;8.70;98.00;;;;;;5111839;28;20878;-68
2021/05/06 06:27:29;;;;;;;1.20;1.00;;;8.80;98.00;;;;;;5114139;28;20982;-67
2021/05/06 06:29:57;;;;;;;1.20;1.00;;;8.70;98.00;;;;;;5111757;28;20527;-67
2021/05/06 06:32:24;;;;;;;1.20;1.03;;;8.70;98.00;;;;;;5114140;28;21014;-67
2021/05/06 06:34:51;;;;;;;1.30;1.00;;;8.70;98.00;;;;;;5111509;27;20465;-67
2021/05/06 06:37:18;;;;;;;1.20;0.90;;;8.70;98.00;;;;;;5114045;28;20482;-67
2021/05/06 06:39:45;;;;;;;1.20;0.90;;;8.70;98.00;;;;;;5111372;28;20547;-67
2021/05/06 06:42:12;;;;;;;1.20;0.90;;;8.70;98.00;;;;;;5113831;28;20949;-67
2021/05/06 06:44:39;;;;;;;1.20;1.00;;;8.70;98.00;;;;;;5111224;28;20469;-66
2021/05/06 06:47:08;;;;;;;1.20;1.00;;;8.80;98.00;;;;;;5113814;28;20822;-66
2021/05/06 06:49:36;;;;;;;1.20;0.90;;;8.70;98.00;;;;;;5111168;28;20446;-67
2021/05/06 06:52:04;;;;;;;1.20;1.10;;;8.70;98.00;;;;;;5113416;28;20500;-67
2021/05/06 06:54:30;;;;;;;1.20;0.90;;;8.70;98.00;;;;;;5111313;28;20448;-67
2021/05/06 06:56:57;;;;;;;1.20;0.90;;;8.60;98.00;;;;;;5113670;28;20830;-67
2021/05/06 06:59:23;;;;;;;1.20;1.00;;;8.60;98.00;;;;;;5110867;28;20481;-68
2021/05/06 07:01:50;;;;;;;1.20;0.90;;;8.60;98.00;;;;;;5113643;28;20465;-68
2021/05/06 07:04:17;;;;;;;1.20;0.90;;;8.70;98.00;;;;;;5110898;28;20443;-67
2021/05/06 07:06:44;;;;;;;1.20;0.90;;;8.70;98.00;;;;;;5113616;28;20507;-68
2021/05/06 07:09:10;;;;;;;1.23;1.10;;;8.70;98.00;;;;;;5111006;28;21257;-68
2021/05/06 07:11:37;;;;;;;1.20;0.90;;;8.70;98.00;;;;;;5113524;28;20451;-67
2021/05/06 07:14:05;;;;;;;2.90;1.50;;;8.70;98.00;;;;;;5109465;28;20462;-67
2021/05/06 07:16:32;;;;;;;1.20;1.00;;;8.80;98.00;;;;;;5113099;28;20465;-67
2021/05/06 07:18:59;;;;;;;1.20;0.90;;;8.70;98.00;;;;;;5110141;28;20514;-66
2021/05/06 07:21:26;;;;;;;1.30;1.00;;;8.70;98.00;;;;;;5112719;28;20454;-66
2021/05/06 07:23:54;;;;;;;1.20;0.90;;;8.70;98.00;;;;;;5110413;28;20523;-67
2021/05/06 07:26:22;;;;;;;1.20;0.90;;;8.70;98.00;;;;;;5112628;28;20490;-68
2021/05/06 07:28:50;;;;;;;1.20;0.90;;;8.70;98.00;;;;;;5112717;28;20446;-70
2021/05/06 07:31:17;;;;;;;1.20;1.00;;;8.70;98.00;;;;;;5110952;28;20886;-69
2021/05/06 07:33:46;;;;;;;1.20;0.90;;;8.70;98.00;;;;;;5111412;28;20454;-69
2021/05/06 07:36:14;;;;;;;1.20;1.10;;;8.80;98.00;;;;;;5109805;28;20486;-70
2021/05/06 07:38:42;;;;;;;1.20;0.90;;;9.20;98.00;;;;;;5112467;28;20483;-69
2021/05/06 07:41:11;;;;;;;1.20;1.00;;;9.90;98.00;;;;;;5109864;28;20459;-69
2021/05/06 07:43:37;;;;;;;1.20;1.00;;;10.70;98.00;;;;;;5112561;28;20450;-70
2021/05/06 07:46:06;;;;;;;1.20;0.90;;;11.10;98.00;;;;;;5109941;28;20485;-70
2021/05/06 07:48:33;;;;;;;1.20;0.90;;;10.80;96.60;;;;;;5111014;28;20829;-66
2021/05/06 07:51:02;;;;;;;1.20;1.00;;;10.40;98.00;;;;;;5109708;28;20944;-68
2021/05/06 07:53:37;;;;;;;1.20;0.90;;;10.10;98.00;;;;;;5112117;28;20465;-69
2021/05/06 07:56:06;;;;;;;1.20;1.00;;;10.00;98.00;;;;;;5109685;28;20482;-68
2021/05/06 07:58:32;;;;;;;1.20;0.90;;;9.90;98.00;;;;;;5111944;27;20517;-68
2021/05/06 08:00:59;;;;;;;1.30;1.00;;;9.70;98.00;;;;;;5109181;28;20499;-68
2021/05/06 08:03:25;;;;;;;1.20;0.90;;;9.60;98.00;;;;;;5110815;28;20500;-68
2021/05/06 08:05:56;;;;;;;1.40;1.20;;;9.60;98.00;;;;;;5109243;28;20460;-69
2021/05/06 08:08:24;;;;;;;1.20;0.90;;;9.60;98.00;;;;;;5111967;28;20458;-68
2021/05/06 08:10:51;;;;;;;1.20;0.90;;;9.50;98.00;;;;;;5109091;28;20462;-68
2021/05/06 08:13:21;;;;;;;1.30;1.10;;;9.40;98.00;;;;;;5111503;28;20489;-66
2021/05/06 08:15:47;;;;;;;1.20;1.03;;;9.40;98.00;;;;;;5109507;27;20463;-69
2021/05/06 08:18:14;;;;;;;1.20;0.90;;;9.30;98.00;;;;;;5111450;28;20463;-69
2021/05/06 08:20:41;;;;;;;1.20;0.90;;;9.40;98.00;;;;;;5109169;28;20974;-67
2021/05/06 08:23:09;;;;;;;1.20;0.90;;;9.50;98.00;;;;;;5111138;28;20451;-70
2021/05/06 08:25:37;;;;;;;1.20;0.90;;;9.40;98.00;;;;;;5109041;28;20504;-69
2021/05/06 08:28:04;;;;;;;1.20;0.90;;;9.40;98.00;;;;;;5111388;28;20451;-70
2021/05/06 08:30:33;;;;;;;1.20;0.90;;;9.40;98.00;;;;;;5108955;28;20455;-69
2021/05/06 08:32:59;;;;;;;1.20;0.90;;;9.40;98.00;;;;;;5110921;28;20479;-71
2021/05/06 08:35:27;;;;;;;1.20;1.00;;;9.50;98.00;;;;;;5108970;28;20827;-69
2021/05/06 08:37:54;;;;;;;1.20;1.00;;;9.60;98.00;;;;;;5111182;28;20487;-70
2021/05/06 08:40:21;;;;;;;1.20;0.90;;;9.60;98.00;;;;;;5108725;28;20483;-69
2021/05/06 08:42:51;;;;;;;1.20;1.00;;;9.50;98.00;;;;;;5110949;28;20464;-71
2021/05/06 08:45:18;;;;;;;1.20;0.90;;;9.50;98.00;;;;;;5108881;28;20483;-70
2021/05/06 08:47:46;;;;;;;1.20;0.90;;;9.50;98.00;;;;;;5110506;28;20498;-70
2021/05/06 08:50:17;;;;;;;1.20;0.93;;;9.50;98.00;;;;;;5107626;28;20816;-66
2021/05/06 08:52:47;;;;;;;1.20;1.00;;;9.60;98.00;;;;;;5110858;28;20832;-66
2021/05/06 08:55:15;;;;;;;1.20;1.10;;;9.60;98.00;;;;;;5108790;28;20850;-70
2021/05/06 08:57:41;;;;;;;1.20;0.90;;;9.60;98.00;;;;;;5109660;28;20468;-68
2021/05/06 09:00:09;;;;;;;1.20;0.90;;;9.60;98.00;;;;;;5108640;28;20831;-75
2021/05/06 09:02:36;;;;;;;1.20;1.00;;;9.70;98.00;;;;;;5110001;28;20459;-71
2021/05/06 09:05:09;;;;;;;1.20;1.10;;;9.80;98.00;;;;;;5108252;28;20463;-70
2021/05/06 09:07:42;;;;;;;1.20;1.00;;;9.80;98.00;;;;;;5110781;28;20818;-70
2021/05/06 09:10:12;;;;;;;1.20;0.90;;;9.80;98.00;;;;;;5108578;28;20450;-71
2021/05/06 09:12:39;;;;;;;1.20;0.90;;;9.80;98.00;;;;;;5110555;28;20454;-71
2021/05/06 09:15:13;;;;;;;1.20;1.00;;;9.70;98.00;;;;;;5107314;28;20796;-71
2021/05/06 09:17:40;;;;;;;1.20;0.90;;;9.80;98.00;;;;;;5111093;28;20466;-71
2021/05/06 09:20:13;;;;;;;1.20;1.00;;;9.90;98.00;;;;;;5108777;28;20528;-71
2021/05/06 09:22:42;;;;;;;1.20;1.00;;;9.90;98.00;;;;;;5110830;28;20458;-71
2021/05/06 09:25:30;;;;;;;1.20;0.97;;;9.90;98.00;;;;;;5108546;28;20462;-71
2021/05/06 09:28:10;;;;;;;1.20;0.90;;;10.00;98.00;;;;;;5109484;28;20459;-68
2021/05/06 09:30:38;;;;;;;1.20;0.90;;;10.00;98.00;;;;;;5107498;28;20558;-71
2021/05/06 09:33:08;;;;;;;1.20;1.00;;;10.00;98.00;;;;;;5110997;28;20499;-71
2021/05/06 09:35:43;;;;;;;1.20;0.90;;;10.00;98.00;;;;;;5108608;28;20451;-72
2021/05/06 09:38:35;;;;;;;1.20;0.90;;;10.00;98.00;;;;;;5110475;28;20499;-69
2021/05/06 09:41:04;;;;;;;1.20;1.00;;;10.00;98.00;;;;;;5093389;28;20852;-70
2021/05/06 09:43:33;;;;;;;1.20;1.00;;;10.00;98.00;;;;;;5110540;28;20452;-70
2021/05/06 09:46:00;;;;;;;1.20;0.90;;;9.90;98.00;;;;;;5108456;28;20523;-70
2021/05/06 09:48:27;;;;;;;1.20;0.90;;;9.90;98.00;;;;;;5110525;28;20798;-68
2021/05/06 09:50:59;;;;;;;1.20;0.97;;;9.80;98.00;;;;;;5107732;28;20447;-68
2021/05/06 09:53:30;;;;;;;1.20;0.90;;;9.80;98.00;;;;;;5110464;28;20455;-69
2021/05/06 09:56:00;;;;;;;1.20;0.90;;;9.80;98.00;;;;;;5108541;28;20459;-69
2021/05/06 09:58:28;;;;;;;1.20;0.90;;;9.70;98.00;;;;;;5110871;28;20482;-68
2021/05/06 10:00:56;;;;;;;1.20;0.90;;;9.70;98.00;;;;;;5107101;28;20474;-69
2021/05/06 10:03:30;;;;;;;1.20;1.00;;;9.70;98.00;;;;;;5110085;28;20457;-68
2021/05/06 10:05:58;;;;;;;1.20;0.90;;;9.70;98.00;;;;;;5107907;28;20817;-68
2021/05/06 10:08:33;;;;;;;1.20;1.00;;;9.70;98.00;;;;;;5110111;28;20455;-67
2021/05/06 10:11:07;;;;;;;1.40;1.10;;;9.70;98.00;;;;;;5106958;28;20452;-69
2021/05/06 10:13:34;;;;;;;1.20;1.10;;;9.70;98.00;;;;;;5111963;28;20463;-70
2021/05/06 10:16:02;;;;;;;1.20;0.90;;;9.70;98.00;;;;;;5127390;28;20455;-69
2021/05/06 10:18:29;;;;;;;1.20;0.90;;;9.80;98.00;;;;;;5130619;28;20454;-68
2021/05/06 10:21:06;;;;;;;1.20;1.10;;;9.80;98.00;;;;;;5128230;28;20454;-68
2021/05/06 10:23:35;;;;;;;1.20;0.90;;;9.70;98.00;;;;;;5130613;27;20447;-67
2021/05/06 10:26:02;;;;;;;1.20;1.00;;;9.90;98.00;;;;;;5129855;27;20460;-67
2021/05/06 10:28:32;;;;;;;1.20;0.90;;;9.80;98.00;;;;;;5134382;27;20454;-69
2021/05/06 10:31:01;;;;;;;1.20;0.90;;;9.80;98.00;;;;;;5131868;27;20965;-68
2021/05/06 10:33:29;;;;;;;1.20;1.00;;;9.80;98.00;;;;;;5132861;27;20510;-69
2021/05/06 10:35:57;;;;;;;1.20;0.90;;;9.80;98.00;;;;;;5132092;27;20457;-70
2021/05/06 10:38:24;;;;;;;1.20;1.00;;;9.90;98.00;;;;;;5134329;27;20891;-68
2021/05/06 10:40:51;;;;;;;1.20;0.90;;;9.90;98.00;;;;;;5131900;27;20454;-68
2021/05/06 10:43:19;;;;;;;1.20;1.00;;;9.90;98.00;;;;;;5134386;27;20801;-68
2021/05/06 10:45:56;;;;;;;1.20;1.00;;;9.90;98.00;;;;;;5131975;27;20489;-69
2021/05/06 10:48:22;;;;;;;1.20;0.90;;;10.00;98.00;;;;;;5134549;27;20901;-68
2021/05/06 10:50:51;;;;;;;1.20;1.00;;;10.10;98.00;;;;;;5131550;27;20999;-68
2021/05/06 10:53:29;;;;;;;1.20;0.93;;;10.20;98.00;;;;;;5133537;27;20450;-69
2021/05/06 10:55:57;;;;;;;1.20;1.10;;;10.20;98.00;;;;;;5131673;27;20534;-69
2021/05/06 10:58:39;;;;;;;1.30;1.17;;;10.20;98.00;;;;;;5134658;27;20458;-68
2021/05/06 11:01:16;;;;;;;1.20;1.00;;;10.30;98.00;;;;;;5132867;27;21052;-66
2021/05/06 11:03:43;;;;;;;1.20;0.90;;;10.30;98.00;;;;;;5134523;27;20958;-68
2021/05/06 11:06:39;;;;;;;1.20;1.00;;;10.30;98.00;;;;;;5131735;27;20528;-69
2021/05/06 11:09:38;;;;;;;1.50;1.23;;;10.30;98.00;;;;;;5134187;27;20466;-68
2021/05/06 11:12:22;;;;;;;1.20;1.00;;;10.30;98.00;;;;;;5130104;27;20459;-68
2021/05/06 11:15:28;;;;;;;1.20;0.90;;;10.30;98.00;;;;;;5117314;27;20455;-69
2021/05/06 11:18:00;;;;;;;1.20;1.00;;;10.30;98.00;;;;;;5113372;28;20527;-68
2021/05/06 11:20:50;;;;;;;1.20;0.90;;;10.30;98.00;;;;;;5110680;28;20479;-69
2021/05/06 11:23:25;;;;;;;1.20;0.90;;;10.30;98.00;;;;;;5113355;28;20455;-68
2021/05/06 11:26:04;;;;;;;1.20;1.00;;;10.40;98.00;;;;;;5111065;28;20451;-69
2021/05/06 11:28:42;;;;;;;1.20;0.90;;;10.30;98.00;;;;;;5112056;28;20538;-69
2021/05/06 11:31:09;;;;;;;1.20;0.90;;;10.40;98.00;;;;;;5110906;27;20448;-68
2021/05/06 11:33:35;;;;;;;1.20;0.90;;;10.40;98.00;;;;;;5113133;28;20458;-69
2021/05/06 11:36:06;;;;;;;1.20;0.90;;;10.40;98.00;;;;;;5110768;28;20495;-69
2021/05/06 11:38:50;;;;;;;1.20;0.90;;;10.50;98.00;;;;;;5112785;28;20547;-70
2021/05/06 11:41:19;;;;;;;1.20;1.10;;;10.40;98.00;;;;;;5110894;28;20453;-70
2021/05/06 11:43:47;;;;;;;1.20;1.00;;;10.40;98.00;;;;;;5113197;28;20447;-68
2021/05/06 11:46:16;;;;;;;1.20;0.90;;;10.60;98.00;;;;;;5110637;28;20477;-68
2021/05/06 11:48:45;;;;;;;1.20;0.93;;;10.50;98.00;;;;;;5112815;28;20464;-68
2021/05/06 11:51:27;;;;;;;1.20;0.90;;;10.60;98.00;;;;;;5110432;28;20482;-70
2021/05/06 11:54:09;;;;;;;1.20;0.93;;;10.60;98.00;;;;;;5112798;28;20937;-68
2021/05/06 11:56:38;;;;;;;1.20;1.00;;;10.50;98.00;;;;;;5110028;28;20463;-69
2021/05/06 11:59:06;;;;;;;1.20;0.90;;;10.50;98.00;;;;;;5112355;28;20487;-69
2021/05/06 12:01:33;;;;;;;1.20;0.90;;;10.50;98.00;;;;;;5110182;28;20801;-68
2021/05/06 12:04:00;;;;;;;1.20;0.90;;;10.40;98.00;;;;;;5112575;28;20488;-68
2021/05/06 12:06:31;;;;;;;1.20;0.90;;;10.40;98.00;;;;;;5109707;28;20483;-68
2021/05/06 12:08:58;;;;;;;1.20;0.90;;;10.40;98.00;;;;;;5112614;28;20508;-68
2021/05/06 12:11:39;;;;;;;1.20;1.10;;;10.50;98.00;;;;;;5109884;28;20451;-70
2021/05/06 12:14:07;;;;;;;1.20;1.00;;;10.50;98.00;;;;;;5112227;28;20459;-68
2021/05/06 12:16:35;;;;;;;1.20;1.00;;;10.60;98.00;;;;;;5108316;28;20470;-69
2021/05/06 12:19:07;;;;;;;1.20;0.90;;;10.50;98.00;;;;;;5112993;28;20534;-67
2021/05/06 12:21:37;;;;;;;1.20;1.00;;;10.50;98.00;;;;;;5110401;28;20449;-69
2021/05/06 12:24:05;;;;;;;1.20;1.00;;;10.60;98.00;;;;;;5113485;28;20455;-69
2021/05/06 12:26:32;;;;;;;1.20;1.00;;;10.60;98.00;;;;;;5109554;28;20455;-68
2021/05/06 12:29:00;;;;;;;1.20;1.00;;;10.70;98.00;;;;;;5112085;28;20470;-68
2021/05/06 12:31:27;;;;;;;1.20;0.90;;;10.70;98.00;;;;;;5108137;28;20444;-69
2021/05/06 12:33:54;;;;;;;1.20;0.90;;;10.60;98.00;;;;;;5111467;28;20465;-70
2021/05/06 12:36:21;;;;;;;1.20;1.00;;;10.70;98.00;;;;;;5108095;28;20461;-69
2021/05/06 12:38:49;;;;;;;1.20;1.00;;;10.80;98.00;;;;;;5110898;28;20501;-68
2021/05/06 12:41:18;;;;;;;1.20;1.00;;;10.70;98.00;;;;;;5108741;28;20453;-71
2021/05/06 12:43:50;;;;;;;1.20;1.00;;;10.70;98.00;;;;;;5111378;28;20483;-69
2021/05/06 12:46:33;;;;;;;1.20;0.90;;;10.70;98.00;;;;;;5109294;28;20459;-69
2021/05/06 12:49:01;;;;;;;1.20;0.90;;;10.80;98.00;;;;;;5110400;28;20803;-69
2021/05/06 12:51:32;;;;;;;1.20;1.00;;;10.80;98.00;;;;;;5108413;28;20454;-67
2021/05/06 12:54:01;;;;;;;1.20;0.90;;;10.70;98.00;;;;;;5111165;28;20458;-68
2021/05/06 12:56:30;;;;;;;1.20;1.00;;;10.70;98.00;;;;;;5108320;28;20867;-71
2021/05/06 12:58:57;;;;;;;1.20;0.90;;;10.70;98.00;;;;;;5111078;28;20486;-71
2021/05/06 13:01:34;;;;;;;1.20;0.90;;;10.70;98.00;;;;;;5108737;28;20964;-69
2021/05/06 13:04:02;;;;;;;1.20;1.00;;;10.80;98.00;;;;;;5111090;28;20880;-69
2021/05/06 13:06:36;;;;;;;1.20;1.00;;;10.80;98.00;;;;;;5107578;28;20481;-68
2021/05/06 13:09:12;;;;;;;1.20;0.93;;;10.80;98.00;;;;;;5110225;28;20447;-65
2021/05/06 13:11:39;;;;;;;1.20;1.00;;;10.80;98.00;;;;;;5108910;28;20457;-69
2021/05/06 13:14:05;;;;;;;1.20;0.90;;;10.70;98.00;;;;;;5110715;28;20614;-67
2021/05/06 13:16:48;;;;;;;1.20;1.00;;;10.80;98.00;;;;;;5107869;28;20504;-68
2021/05/06 13:19:16;;;;;;;1.20;0.90;;;10.80;98.00;;;;;;5111164;28;20999;-69
2021/05/06 13:21:47;;;;;;;1.20;1.00;;;10.90;98.00;;;;;;5108856;28;20525;-68
2021/05/06 13:24:14;;;;;;;1.33;1.10;;;10.90;98.00;;;;;;5111282;28;20453;-69
2021/05/06 13:26:42;;;;;;;1.20;0.90;;;10.90;98.00;;;;;;5108737;28;20470;-67
2021/05/06 13:29:12;;;;;;;1.20;0.90;;;10.90;98.00;;;;;;5111282;28;20465;-67
2021/05/06 13:31:40;;;;;;;1.20;0.90;;;10.70;98.00;;;;;;5108605;28;20839;-69
2021/05/06 13:34:19;;;;;;;1.20;1.03;;;10.70;98.00;;;;;;5111082;28;20818;-68
2021/05/06 13:36:58;;;;;;;1.20;1.00;;;10.60;98.00;;;;;;5107403;28;20510;-68
2021/05/06 13:39:24;;;;;;;1.20;0.90;;;10.70;98.00;;;;;;5110940;28;20575;-69
2021/05/06 13:41:51;;;;;;;1.30;1.10;;;10.80;98.00;;;;;;5108148;28;20453;-68
2021/05/06 13:44:19;;;;;;;1.20;1.00;;;10.60;98.00;;;;;;5111191;28;20516;-68
2021/05/06 13:46:52;;;;;;;1.20;0.90;;;10.60;98.00;;;;;;5108123;28;20486;-68
2021/05/06 13:49:21;;;;;;;1.20;0.90;;;10.60;98.00;;;;;;5111050;28;20529;-68
2021/05/06 13:51:47;;;;;;;1.20;1.00;;;10.60;98.00;;;;;;5108670;28;20459;-69
2021/05/06 13:54:15;;;;;;;1.20;0.90;;;10.50;98.00;;;;;;5110375;28;20459;-68
2021/05/06 13:56:42;;;;;;;1.40;1.00;;;10.30;98.00;;;;;;5107327;28;20462;-69
2021/05/06 13:59:08;;;;;;;1.20;0.90;;;10.40;98.00;;;;;;5109312;28;20476;-69
2021/05/06 14:01:35;;;;;;;1.20;1.00;;;10.40;98.00;;;;;;5109661;28;20462;-69
2021/05/06 14:04:02;;;;;;;1.20;0.90;;;10.30;98.00;;;;;;5114425;28;20455;-70
2021/05/06 14:06:29;;;;;;;1.20;1.00;;;10.40;98.00;;;;;;5111109;28;20466;-69
2021/05/06 14:08:56;;;;;;;3.20;1.37;;;10.30;98.00;;;;;;5113130;28;20473;-68
2021/05/06 14:11:25;;;;;;;1.20;0.90;;;10.10;98.00;;;;;;5111631;28;20824;-68
2021/05/06 14:13:54;;;;;;;1.20;1.00;;;10.30;98.00;;;;;;5113899;28;20459;-69
2021/05/06 14:16:20;;;;;;;1.20;1.00;;;10.30;98.00;;;;;;5111097;28;20488;-68
2021/05/06 14:18:47;;;;;;;1.20;0.90;;;10.30;98.00;;;;;;5113756;28;20787;-67
2021/05/06 14:21:15;;;;;;;1.20;1.00;;;10.40;98.00;;;;;;5111247;28;20458;-67
2021/05/06 14:23:44;;;;;;;1.30;1.00;;;10.40;98.00;;;;;;5114033;28;20891;-68
2021/05/06 14:26:14;;;;;;;1.20;0.90;;;10.40;98.00;;;;;;5111022;28;20458;-72
2021/05/06 14:28:41;;;;;;;1.20;0.90;;;10.40;98.00;;;;;;5113836;28;20486;-67
2021/05/06 14:31:09;;;;;;;1.20;0.90;;;10.60;98.00;;;;;;5111428;28;20460;-67
2021/05/06 14:33:35;;;;;;;1.20;0.90;;;10.60;98.00;;;;;;5113798;28;20451;-66
2021/05/06 14:36:06;;;;;;;1.20;0.90;;;10.60;98.00;;;;;;5111078;28;20497;-66
2021/05/06 14:38:33;;;;;;;1.20;1.00;;;10.60;98.00;;;;;;5113863;28;20459;-68
2021/05/06 14:41:01;;;;;;;1.20;0.90;;;10.60;98.00;;;;;;5111324;28;21058;-68
2021/05/06 14:43:27;;;;;;;1.20;1.20;;;10.50;98.00;;;;;;5113881;28;20491;-66
2021/05/06 14:45:54;;;;;;;1.20;0.90;;;10.30;98.00;;;;;;5110847;28;20480;-66
2021/05/06 14:48:21;;;;;;;1.20;1.00;;;10.20;98.00;;;;;;5113721;28;20454;-64
2021/05/06 14:50:47;;;;;;;1.40;1.17;;;10.30;98.00;;;;;;5109785;28;20509;-67
2021/05/06 14:53:14;;;;;;;1.20;0.90;;;10.50;98.00;;;;;;5113476;27;20458;-66
2021/05/06 14:55:42;;;;;;;1.20;0.90;;;10.60;98.00;;;;;;5110871;28;20504;-68
2021/05/06 14:58:09;;;;;;;1.20;1.00;;;10.50;98.00;;;;;;5113432;28;20499;-66
2021/05/06 15:00:36;;;;;;;1.20;1.00;;;10.50;98.00;;;;;;5110535;28;20487;-67
2021/05/06 15:03:04;;;;;;;1.20;0.90;;;10.40;98.00;;;;;;5113275;28;20510;-67
2021/05/06 15:05:31;;;;;;;1.20;0.97;;;10.30;98.00;;;;;;5110296;28;20465;-69
2021/05/06 15:08:02;;;;;;;1.93;1.20;;;10.30;98.00;;;;;;5113198;28;20839;-68
2021/05/06 15:10:29;;;;;;;1.20;0.90;;;10.30;98.00;;;;;;5110425;28;20460;-68
2021/05/06 15:12:55;;;;;;;1.30;1.20;;;10.30;98.00;;;;;;5112791;28;20604;-68
2021/05/06 15:15:23;;;;;;;1.20;1.00;;;10.40;98.00;;;;;;5110261;28;20465;-68
2021/05/06 15:17:57;;;;;;;1.20;0.90;;;10.40;98.00;;;;;;5112793;28;20454;-68
2021/05/06 15:20:24;;;;;;;1.20;0.97;;;10.40;98.00;;;;;;5110052;28;20486;-68
2021/05/06 15:22:51;;;;;;;1.20;1.10;;;10.40;98.00;;;;;;5112812;28;20455;-69
2021/05/06 15:25:18;;;;;;;1.20;1.00;;;10.40;98.00;;;;;;5110263;28;20494;-67
2021/05/06 15:27:45;;;;;;;1.30;1.00;;;10.40;98.00;;;;;;5112541;28;20482;-66